sensor_id;sensor_type;location;lat;lon;timestamp;P1;durP1;ratioP1;P2;durP2;ratioP2
61291;SDS011;47165;42.664;23.368;2022-09-30T00:02:08;8.50;;;4.68;;
61291;SDS011;47165;42.664;23.368;2022-09-30T00:04:36;15.95;;;6.13;;
61291;SDS011;47165;42.664;23.368;2022-09-30T00:07:01;10.57;;;5.82;;
61291;SDS011;47165;42.664;23.368;2022-09-30T00:09:27;8.65;;;4.97;;
61291;SDS011;47165;42.664;23.368;2022-09-30T00:11:52;11.07;;;4.45;;
61291;SDS011;47165;42.664;23.368;2022-09-30T00:14:18;15.10;;;7.78;;
61291;SDS011;47165;42.664;23.368;2022-09-30T00:16:45;9.93;;;6.40;;
61291;SDS011;47165;42.664;23.368;2022-09-30T00:19:11;10.38;;;5.72;;
61291;SDS011;47165;42.664;23.368;2022-09-30T00:21:37;7.47;;;4.78;;
61291;SDS011;47165;42.664;23.368;2022-09-30T00:24:03;8.55;;;5.20;;
61291;SDS011;47165;42.664;23.368;2022-09-30T00:26:29;8.48;;;4.85;;
61291;SDS011;47165;42.664;23.368;2022-09-30T00:28:56;9.00;;;4.80;;
61291;SDS011;47165;42.664;23.368;2022-09-30T00:31:23;8.32;;;4.85;;
61291;SDS011;47165;42.664;23.368;2022-09-30T00:33:50;8.27;;;5.32;;
61291;SDS011;47165;42.664;23.368;2022-09-30T00:39:05;7.80;;;4.20;;
61291;SDS011;47165;42.664;23.368;2022-09-30T00:41:32;8.38;;;5.05;;
61291;SDS011;47165;42.664;23.368;2022-09-30T00:43:58;8.90;;;5.03;;
61291;SDS011;47165;42.664;23.368;2022-09-30T00:49:08;13.05;;;5.13;;
61291;SDS011;47165;42.664;23.368;2022-09-30T00:51:39;10.88;;;4.70;;
61291;SDS011;47165;42.664;23.368;2022-09-30T00:54:09;10.77;;;5.18;;
61291;SDS011;47165;42.664;23.368;2022-09-30T00:56:42;8.63;;;4.90;;
61291;SDS011;47165;42.664;23.368;2022-09-30T00:59:12;7.40;;;4.38;;
61291;SDS011;47165;42.664;23.368;2022-09-30T01:01:40;9.32;;;5.10;;
61291;SDS011;47165;42.664;23.368;2022-09-30T01:04:10;8.07;;;5.40;;
61291;SDS011;47165;42.664;23.368;2022-09-30T01:06:38;9.80;;;5.10;;
61291;SDS011;47165;42.664;23.368;2022-09-30T01:09:04;12.40;;;6.10;;
61291;SDS011;47165;42.664;23.368;2022-09-30T01:11:30;10.52;;;6.18;;
61291;SDS011;47165;42.664;23.368;2022-09-30T01:13:58;9.70;;;6.55;;
61291;SDS011;47165;42.664;23.368;2022-09-30T01:21:51;11.75;;;5.25;;
61291;SDS011;47165;42.664;23.368;2022-09-30T01:24:46;13.07;;;5.68;;
61291;SDS011;47165;42.664;23.368;2022-09-30T01:54:54;8.80;;;4.30;;
61291;SDS011;47165;42.664;23.368;2022-09-30T02:00:04;11.25;;;4.57;;
61291;SDS011;47165;42.664;23.368;2022-09-30T02:02:33;8.07;;;5.50;;
61291;SDS011;47165;42.664;23.368;2022-09-30T02:05:10;9.07;;;4.80;;
61291;SDS011;47165;42.664;23.368;2022-09-30T02:07:42;8.65;;;4.53;;
61291;SDS011;47165;42.664;23.368;2022-09-30T02:10:14;8.35;;;4.75;;
61291;SDS011;47165;42.664;23.368;2022-09-30T02:12:46;8.38;;;5.07;;
61291;SDS011;47165;42.664;23.368;2022-09-30T02:15:22;7.07;;;4.57;;
61291;SDS011;47165;42.664;23.368;2022-09-30T02:17:54;7.47;;;4.90;;
61291;SDS011;47165;42.664;23.368;2022-09-30T02:20:26;7.65;;;4.22;;
61291;SDS011;47165;42.664;23.368;2022-09-30T02:23:01;8.95;;;4.60;;
61291;SDS011;47165;42.664;23.368;2022-09-30T02:25:32;9.07;;;4.38;;
61291;SDS011;47165;42.664;23.368;2022-09-30T02:28:04;10.77;;;4.72;;
61291;SDS011;47165;42.664;23.368;2022-09-30T02:30:34;7.75;;;4.88;;
61291;SDS011;47165;42.664;23.368;2022-09-30T02:33:03;6.93;;;4.43;;
61291;SDS011;47165;42.664;23.368;2022-09-30T02:35:34;5.90;;;3.85;;
61291;SDS011;47165;42.664;23.368;2022-09-30T02:38:04;9.65;;;5.20;;
61291;SDS011;47165;42.664;23.368;2022-09-30T02:40:37;7.85;;;5.13;;
61291;SDS011;47165;42.664;23.368;2022-09-30T02:43:08;9.73;;;4.60;;
61291;SDS011;47165;42.664;23.368;2022-09-30T02:48:44;9.98;;;4.43;;
61291;SDS011;47165;42.664;23.368;2022-09-30T02:51:26;8.90;;;4.88;;
61291;SDS011;47165;42.664;23.368;2022-09-30T02:53:59;9.60;;;5.55;;
61291;SDS011;47165;42.664;23.368;2022-09-30T02:58:59;9.68;;;4.93;;
61291;SDS011;47165;42.664;23.368;2022-09-30T03:01:25;8.45;;;4.10;;
61291;SDS011;47165;42.664;23.368;2022-09-30T03:03:52;9.60;;;5.03;;
61291;SDS011;47165;42.664;23.368;2022-09-30T03:06:21;8.80;;;5.72;;
61291;SDS011;47165;42.664;23.368;2022-09-30T03:08:47;10.35;;;5.40;;
61291;SDS011;47165;42.664;23.368;2022-09-30T03:11:16;11.25;;;5.57;;
61291;SDS011;47165;42.664;23.368;2022-09-30T03:13:57;11.60;;;6.38;;
61291;SDS011;47165;42.664;23.368;2022-09-30T03:22:05;10.82;;;6.60;;
61291;SDS011;47165;42.664;23.368;2022-09-30T03:30:54;11.23;;;5.72;;
61291;SDS011;47165;42.664;23.368;2022-09-30T03:33:50;10.15;;;6.35;;
61291;SDS011;47165;42.664;23.368;2022-09-30T03:36:40;16.63;;;7.55;;
61291;SDS011;47165;42.664;23.368;2022-09-30T03:41:40;12.50;;;6.20;;
61291;SDS011;47165;42.664;23.368;2022-09-30T03:44:20;8.23;;;4.57;;
61291;SDS011;47165;42.664;23.368;2022-09-30T03:47:01;11.43;;;5.63;;
61291;SDS011;47165;42.664;23.368;2022-09-30T03:49:34;12.90;;;7.10;;
61291;SDS011;47165;42.664;23.368;2022-09-30T03:52:04;13.32;;;6.40;;
61291;SDS011;47165;42.664;23.368;2022-09-30T03:54:32;11.70;;;6.22;;
61291;SDS011;47165;42.664;23.368;2022-09-30T03:56:57;9.57;;;5.18;;
61291;SDS011;47165;42.664;23.368;2022-09-30T03:59:27;12.57;;;6.63;;
61291;SDS011;47165;42.664;23.368;2022-09-30T04:01:53;12.95;;;6.22;;
61291;SDS011;47165;42.664;23.368;2022-09-30T04:04:20;16.20;;;6.88;;
61291;SDS011;47165;42.664;23.368;2022-09-30T04:06:46;9.60;;;6.22;;
61291;SDS011;47165;42.664;23.368;2022-09-30T04:09:11;13.07;;;6.30;;
61291;SDS011;47165;42.664;23.368;2022-09-30T04:11:37;11.93;;;6.53;;
61291;SDS011;47165;42.664;23.368;2022-09-30T04:14:02;13.45;;;6.60;;
61291;SDS011;47165;42.664;23.368;2022-09-30T04:16:29;11.38;;;6.75;;
61291;SDS011;47165;42.664;23.368;2022-09-30T04:18:54;12.95;;;6.25;;
61291;SDS011;47165;42.664;23.368;2022-09-30T04:21:23;9.82;;;5.60;;
61291;SDS011;47165;42.664;23.368;2022-09-30T04:23:49;11.75;;;6.40;;
61291;SDS011;47165;42.664;23.368;2022-09-30T04:26:15;16.00;;;6.72;;
61291;SDS011;47165;42.664;23.368;2022-09-30T04:28:41;11.98;;;5.60;;
61291;SDS011;47165;42.664;23.368;2022-09-30T04:31:08;12.75;;;6.50;;
61291;SDS011;47165;42.664;23.368;2022-09-30T04:33:35;10.57;;;5.57;;
61291;SDS011;47165;42.664;23.368;2022-09-30T04:36:01;8.65;;;5.32;;
61291;SDS011;47165;42.664;23.368;2022-09-30T04:38:27;11.52;;;5.93;;
61291;SDS011;47165;42.664;23.368;2022-09-30T04:40:54;13.30;;;6.68;;
61291;SDS011;47165;42.664;23.368;2022-09-30T04:43:20;12.40;;;5.47;;
61291;SDS011;47165;42.664;23.368;2022-09-30T04:45:48;10.50;;;5.78;;
61291;SDS011;47165;42.664;23.368;2022-09-30T04:48:14;11.90;;;6.35;;
61291;SDS011;47165;42.664;23.368;2022-09-30T04:50:40;10.70;;;6.03;;
61291;SDS011;47165;42.664;23.368;2022-09-30T04:53:07;15.05;;;7.05;;
61291;SDS011;47165;42.664;23.368;2022-09-30T04:55:35;14.50;;;5.97;;
61291;SDS011;47165;42.664;23.368;2022-09-30T04:58:00;14.52;;;6.35;;
61291;SDS011;47165;42.664;23.368;2022-09-30T05:00:26;14.00;;;6.95;;
61291;SDS011;47165;42.664;23.368;2022-09-30T05:02:51;13.50;;;6.68;;
61291;SDS011;47165;42.664;23.368;2022-09-30T05:05:17;16.67;;;8.00;;
61291;SDS011;47165;42.664;23.368;2022-09-30T05:07:43;12.70;;;6.97;;
61291;SDS011;47165;42.664;23.368;2022-09-30T05:10:08;19.27;;;7.18;;
61291;SDS011;47165;42.664;23.368;2022-09-30T05:12:37;14.13;;;6.53;;
61291;SDS011;47165;42.664;23.368;2022-09-30T05:15:05;14.48;;;7.70;;
61291;SDS011;47165;42.664;23.368;2022-09-30T05:17:31;13.55;;;7.10;;
61291;SDS011;47165;42.664;23.368;2022-09-30T05:19:57;12.80;;;7.40;;
61291;SDS011;47165;42.664;23.368;2022-09-30T05:22:23;14.23;;;7.32;;
61291;SDS011;47165;42.664;23.368;2022-09-30T05:24:50;14.93;;;7.03;;
61291;SDS011;47165;42.664;23.368;2022-09-30T05:27:16;16.67;;;7.22;;
61291;SDS011;47165;42.664;23.368;2022-09-30T05:29:43;13.63;;;7.07;;
61291;SDS011;47165;42.664;23.368;2022-09-30T05:32:08;18.73;;;7.85;;
61291;SDS011;47165;42.664;23.368;2022-09-30T05:34:34;24.80;;;7.90;;
61291;SDS011;47165;42.664;23.368;2022-09-30T05:37:02;14.65;;;7.22;;
61291;SDS011;47165;42.664;23.368;2022-09-30T05:39:28;18.65;;;9.00;;
61291;SDS011;47165;42.664;23.368;2022-09-30T05:41:55;19.50;;;9.68;;
61291;SDS011;47165;42.664;23.368;2022-09-30T05:44:21;17.70;;;8.90;;
61291;SDS011;47165;42.664;23.368;2022-09-30T05:46:47;17.60;;;8.60;;
61291;SDS011;47165;42.664;23.368;2022-09-30T05:49:12;17.90;;;8.63;;
61291;SDS011;47165;42.664;23.368;2022-09-30T05:51:38;19.45;;;9.73;;
61291;SDS011;47165;42.664;23.368;2022-09-30T05:54:03;20.83;;;8.57;;
61291;SDS011;47165;42.664;23.368;2022-09-30T05:56:29;20.13;;;8.98;;
61291;SDS011;47165;42.664;23.368;2022-09-30T05:58:54;18.48;;;8.77;;
61291;SDS011;47165;42.664;23.368;2022-09-30T06:01:19;18.92;;;8.82;;
61291;SDS011;47165;42.664;23.368;2022-09-30T06:03:45;17.50;;;8.63;;
61291;SDS011;47165;42.664;23.368;2022-09-30T06:06:12;18.48;;;9.20;;
61291;SDS011;47165;42.664;23.368;2022-09-30T06:08:38;21.45;;;10.10;;
61291;SDS011;47165;42.664;23.368;2022-09-30T06:11:09;20.95;;;10.63;;
61291;SDS011;47165;42.664;23.368;2022-09-30T06:13:36;22.95;;;9.52;;
61291;SDS011;47165;42.664;23.368;2022-09-30T06:16:01;21.38;;;9.25;;
61291;SDS011;47165;42.664;23.368;2022-09-30T06:18:27;22.10;;;9.23;;
61291;SDS011;47165;42.664;23.368;2022-09-30T06:20:57;25.25;;;10.90;;
61291;SDS011;47165;42.664;23.368;2022-09-30T06:23:23;24.55;;;12.20;;
61291;SDS011;47165;42.664;23.368;2022-09-30T06:25:52;26.70;;;11.90;;
61291;SDS011;47165;42.664;23.368;2022-09-30T06:28:19;25.05;;;11.88;;
61291;SDS011;47165;42.664;23.368;2022-09-30T06:30:45;24.02;;;12.15;;
61291;SDS011;47165;42.664;23.368;2022-09-30T06:33:12;27.33;;;12.07;;
61291;SDS011;47165;42.664;23.368;2022-09-30T06:35:38;33.75;;;13.48;;
61291;SDS011;47165;42.664;23.368;2022-09-30T06:38:10;30.55;;;14.15;;
61291;SDS011;47165;42.664;23.368;2022-09-30T06:40:36;29.67;;;11.93;;
61291;SDS011;47165;42.664;23.368;2022-09-30T06:43:02;22.80;;;12.13;;
61291;SDS011;47165;42.664;23.368;2022-09-30T06:45:28;30.92;;;14.02;;
61291;SDS011;47165;42.664;23.368;2022-09-30T06:47:57;33.33;;;13.30;;
61291;SDS011;47165;42.664;23.368;2022-09-30T06:50:23;33.65;;;13.13;;
61291;SDS011;47165;42.664;23.368;2022-09-30T06:52:49;25.38;;;10.63;;
61291;SDS011;47165;42.664;23.368;2022-09-30T06:55:16;28.55;;;11.23;;
61291;SDS011;47165;42.664;23.368;2022-09-30T06:57:42;24.17;;;11.07;;
61291;SDS011;47165;42.664;23.368;2022-09-30T07:00:09;31.17;;;13.45;;
61291;SDS011;47165;42.664;23.368;2022-09-30T07:02:35;27.88;;;13.25;;
61291;SDS011;47165;42.664;23.368;2022-09-30T07:05:01;30.48;;;12.43;;
61291;SDS011;47165;42.664;23.368;2022-09-30T07:07:27;27.42;;;13.50;;
61291;SDS011;47165;42.664;23.368;2022-09-30T07:09:53;24.23;;;10.82;;
61291;SDS011;47165;42.664;23.368;2022-09-30T07:12:19;23.42;;;11.73;;
61291;SDS011;47165;42.664;23.368;2022-09-30T07:14:44;24.60;;;12.68;;
61291;SDS011;47165;42.664;23.368;2022-09-30T07:17:10;21.67;;;11.18;;
61291;SDS011;47165;42.664;23.368;2022-09-30T07:19:35;25.08;;;12.50;;
61291;SDS011;47165;42.664;23.368;2022-09-30T07:22:00;27.80;;;12.10;;
61291;SDS011;47165;42.664;23.368;2022-09-30T07:24:45;25.17;;;11.50;;
61291;SDS011;47165;42.664;23.368;2022-09-30T07:27:10;25.35;;;12.05;;
61291;SDS011;47165;42.664;23.368;2022-09-30T07:29:37;18.95;;;10.43;;
61291;SDS011;47165;42.664;23.368;2022-09-30T07:32:04;30.65;;;12.20;;
61291;SDS011;47165;42.664;23.368;2022-09-30T07:34:29;22.67;;;11.98;;
61291;SDS011;47165;42.664;23.368;2022-09-30T07:36:55;25.27;;;11.63;;
61291;SDS011;47165;42.664;23.368;2022-09-30T07:39:20;25.92;;;12.73;;
61291;SDS011;47165;42.664;23.368;2022-09-30T07:41:46;19.95;;;11.25;;
61291;SDS011;47165;42.664;23.368;2022-09-30T07:44:12;20.00;;;10.80;;
61291;SDS011;47165;42.664;23.368;2022-09-30T07:46:39;19.95;;;11.40;;
61291;SDS011;47165;42.664;23.368;2022-09-30T07:49:09;30.40;;;11.98;;
61291;SDS011;47165;42.664;23.368;2022-09-30T07:51:39;29.70;;;11.35;;
61291;SDS011;47165;42.664;23.368;2022-09-30T07:54:06;23.17;;;10.52;;
61291;SDS011;47165;42.664;23.368;2022-09-30T07:56:37;21.63;;;11.25;;
61291;SDS011;47165;42.664;23.368;2022-09-30T07:59:04;16.38;;;8.50;;
61291;SDS011;47165;42.664;23.368;2022-09-30T08:01:30;21.77;;;11.05;;
61291;SDS011;47165;42.664;23.368;2022-09-30T08:03:57;17.80;;;8.80;;
61291;SDS011;47165;42.664;23.368;2022-09-30T08:06:25;23.15;;;10.15;;
61291;SDS011;47165;42.664;23.368;2022-09-30T08:08:53;20.23;;;9.68;;
61291;SDS011;47165;42.664;23.368;2022-09-30T08:11:20;16.77;;;9.35;;
61291;SDS011;47165;42.664;23.368;2022-09-30T08:13:52;13.27;;;8.30;;
61291;SDS011;47165;42.664;23.368;2022-09-30T08:16:20;15.00;;;8.23;;
61291;SDS011;47165;42.664;23.368;2022-09-30T08:18:46;16.08;;;7.72;;
61291;SDS011;47165;42.664;23.368;2022-09-30T08:21:12;16.52;;;8.43;;
61291;SDS011;47165;42.664;23.368;2022-09-30T08:23:38;15.05;;;8.23;;
61291;SDS011;47165;42.664;23.368;2022-09-30T08:26:04;13.93;;;7.57;;
61291;SDS011;47165;42.664;23.368;2022-09-30T08:28:34;16.30;;;9.02;;
61291;SDS011;47165;42.664;23.368;2022-09-30T08:31:05;14.98;;;8.68;;
61291;SDS011;47165;42.664;23.368;2022-09-30T08:33:35;18.05;;;8.20;;
61291;SDS011;47165;42.664;23.368;2022-09-30T08:36:22;11.88;;;8.32;;
61291;SDS011;47165;42.664;23.368;2022-09-30T08:38:48;15.30;;;8.32;;
61291;SDS011;47165;42.664;23.368;2022-09-30T08:52:16;13.45;;;7.32;;
61291;SDS011;47165;42.664;23.368;2022-09-30T08:54:46;12.93;;;7.90;;
61291;SDS011;47165;42.664;23.368;2022-09-30T08:57:14;13.55;;;7.32;;
61291;SDS011;47165;42.664;23.368;2022-09-30T08:59:44;14.35;;;7.22;;
61291;SDS011;47165;42.664;23.368;2022-09-30T09:02:17;12.02;;;7.22;;
61291;SDS011;47165;42.664;23.368;2022-09-30T09:05:23;15.55;;;5.97;;
61291;SDS011;47165;42.664;23.368;2022-09-30T09:13:57;13.77;;;7.40;;
61291;SDS011;47165;42.664;23.368;2022-09-30T09:16:55;12.95;;;6.53;;
61291;SDS011;47165;42.664;23.368;2022-09-30T09:19:25;17.23;;;6.72;;
61291;SDS011;47165;42.664;23.368;2022-09-30T09:22:00;11.13;;;6.32;;
61291;SDS011;47165;42.664;23.368;2022-09-30T09:24:27;9.52;;;6.30;;
61291;SDS011;47165;42.664;23.368;2022-09-30T09:27:39;14.27;;;6.97;;
61291;SDS011;47165;42.664;23.368;2022-09-30T09:30:14;13.95;;;6.63;;
61291;SDS011;47165;42.664;23.368;2022-09-30T09:32:46;15.70;;;7.47;;
61291;SDS011;47165;42.664;23.368;2022-09-30T09:36:01;12.68;;;6.40;;
61291;SDS011;47165;42.664;23.368;2022-09-30T09:38:40;12.00;;;6.45;;
61291;SDS011;47165;42.664;23.368;2022-09-30T09:41:24;11.75;;;6.50;;
61291;SDS011;47165;42.664;23.368;2022-09-30T09:47:12;16.20;;;6.82;;
61291;SDS011;47165;42.664;23.368;2022-09-30T09:55:12;15.65;;;7.65;;
61291;SDS011;47165;42.664;23.368;2022-09-30T09:57:40;14.30;;;7.65;;
61291;SDS011;47165;42.664;23.368;2022-09-30T10:00:24;14.88;;;8.30;;
61291;SDS011;47165;42.664;23.368;2022-09-30T10:05:35;11.23;;;6.78;;
61291;SDS011;47165;42.664;23.368;2022-09-30T10:10:42;13.93;;;6.78;;
61291;SDS011;47165;42.664;23.368;2022-09-30T10:13:14;11.27;;;6.22;;
61291;SDS011;47165;42.664;23.368;2022-09-30T10:15:42;18.15;;;8.32;;
61291;SDS011;47165;42.664;23.368;2022-09-30T10:18:18;15.68;;;8.07;;
61291;SDS011;47165;42.664;23.368;2022-09-30T10:20:54;12.90;;;6.85;;
61291;SDS011;47165;42.664;23.368;2022-09-30T10:23:30;13.13;;;7.28;;
61291;SDS011;47165;42.664;23.368;2022-09-30T10:25:59;13.57;;;7.60;;
61291;SDS011;47165;42.664;23.368;2022-09-30T10:28:29;11.35;;;6.38;;
61291;SDS011;47165;42.664;23.368;2022-09-30T10:31:03;8.50;;;5.20;;
61291;SDS011;47165;42.664;23.368;2022-09-30T10:33:42;10.50;;;5.80;;
61291;SDS011;47165;42.664;23.368;2022-09-30T10:36:20;9.82;;;5.15;;
61291;SDS011;47165;42.664;23.368;2022-09-30T10:39:00;11.60;;;5.60;;
61291;SDS011;47165;42.664;23.368;2022-09-30T10:41:30;9.93;;;5.33;;
61291;SDS011;47165;42.664;23.368;2022-09-30T10:43:58;7.13;;;5.03;;
61291;SDS011;47165;42.664;23.368;2022-09-30T10:46:30;8.80;;;4.85;;
61291;SDS011;47165;42.664;23.368;2022-09-30T10:48:59;10.95;;;4.68;;
61291;SDS011;47165;42.664;23.368;2022-09-30T10:51:36;6.90;;;4.30;;
61291;SDS011;47165;42.664;23.368;2022-09-30T10:54:03;12.25;;;4.68;;
61291;SDS011;47165;42.664;23.368;2022-09-30T10:56:34;5.45;;;3.70;;
61291;SDS011;47165;42.664;23.368;2022-09-30T10:59:02;5.10;;;3.45;;
61291;SDS011;47165;42.664;23.368;2022-09-30T11:01:34;6.75;;;3.80;;
61291;SDS011;47165;42.664;23.368;2022-09-30T11:04:11;7.80;;;3.13;;
61291;SDS011;47165;42.664;23.368;2022-09-30T11:06:50;6.35;;;3.63;;
61291;SDS011;47165;42.664;23.368;2022-09-30T11:09:33;8.05;;;4.65;;
61291;SDS011;47165;42.664;23.368;2022-09-30T11:17:31;5.63;;;2.20;;
61291;SDS011;47165;42.664;23.368;2022-09-30T11:20:12;5.05;;;1.95;;
61291;SDS011;47165;42.664;23.368;2022-09-30T11:22:48;3.15;;;1.92;;
61291;SDS011;47165;42.664;23.368;2022-09-30T11:25:29;3.25;;;2.08;;
61291;SDS011;47165;42.664;23.368;2022-09-30T11:33:46;2.28;;;1.70;;
61291;SDS011;47165;42.664;23.368;2022-09-30T11:41:42;1.90;;;1.40;;
61291;SDS011;47165;42.664;23.368;2022-09-30T11:47:25;2.88;;;1.42;;
61291;SDS011;47165;42.664;23.368;2022-09-30T11:49:56;3.50;;;1.50;;
61291;SDS011;47165;42.664;23.368;2022-09-30T12:00:30;2.15;;;1.45;;
61291;SDS011;47165;42.664;23.368;2022-09-30T12:03:00;1.27;;;1.02;;
61291;SDS011;47165;42.664;23.368;2022-09-30T12:05:40;2.40;;;1.30;;
61291;SDS011;47165;42.664;23.368;2022-09-30T12:10:49;1.70;;;1.30;;
61291;SDS011;47165;42.664;23.368;2022-09-30T12:13:24;3.25;;;1.30;;
61291;SDS011;47165;42.664;23.368;2022-09-30T12:15:55;1.95;;;1.50;;
61291;SDS011;47165;42.664;23.368;2022-09-30T12:18:24;2.50;;;1.23;;
61291;SDS011;47165;42.664;23.368;2022-09-30T12:20:58;6.53;;;1.58;;
61291;SDS011;47165;42.664;23.368;2022-09-30T12:25:58;6.65;;;1.73;;
61291;SDS011;47165;42.664;23.368;2022-09-30T12:54:15;1.52;;;0.98;;
61291;SDS011;47165;42.664;23.368;2022-09-30T12:56:44;1.17;;;0.88;;
61291;SDS011;47165;42.664;23.368;2022-09-30T12:59:12;1.00;;;0.80;;
61291;SDS011;47165;42.664;23.368;2022-09-30T13:01:38;2.72;;;0.85;;
61291;SDS011;47165;42.664;23.368;2022-09-30T13:11:42;1.83;;;1.05;;
61291;SDS011;47165;42.664;23.368;2022-09-30T13:14:15;2.50;;;1.08;;
61291;SDS011;47165;42.664;23.368;2022-09-30T13:27:36;1.42;;;1.15;;
61291;SDS011;47165;42.664;23.368;2022-09-30T13:30:27;1.27;;;1.00;;
61291;SDS011;47165;42.664;23.368;2022-09-30T13:40:37;2.17;;;1.13;;
61291;SDS011;47165;42.664;23.368;2022-09-30T13:43:09;2.72;;;1.10;;
61291;SDS011;47165;42.664;23.368;2022-09-30T13:45:38;2.15;;;0.90;;
61291;SDS011;47165;42.664;23.368;2022-09-30T13:48:08;3.20;;;0.75;;
61291;SDS011;47165;42.664;23.368;2022-09-30T13:50:44;3.17;;;1.08;;
61291;SDS011;47165;42.664;23.368;2022-09-30T13:53:21;1.85;;;0.93;;
61291;SDS011;47165;42.664;23.368;2022-09-30T13:56:05;0.65;;;0.65;;
61291;SDS011;47165;42.664;23.368;2022-09-30T14:18:49;2.17;;;1.13;;
61291;SDS011;47165;42.664;23.368;2022-09-30T14:21:43;1.30;;;0.65;;
61291;SDS011;47165;42.664;23.368;2022-09-30T14:24:14;1.05;;;0.93;;
61291;SDS011;47165;42.664;23.368;2022-09-30T14:32:54;3.88;;;0.88;;
61291;SDS011;47165;42.664;23.368;2022-09-30T14:35:26;1.50;;;1.00;;
61291;SDS011;47165;42.664;23.368;2022-09-30T14:37:58;3.13;;;0.65;;
61291;SDS011;47165;42.664;23.368;2022-09-30T14:40:30;3.25;;;0.98;;
61291;SDS011;47165;42.664;23.368;2022-09-30T14:42:58;1.83;;;0.80;;
61291;SDS011;47165;42.664;23.368;2022-09-30T14:45:30;1.83;;;1.00;;
61291;SDS011;47165;42.664;23.368;2022-09-30T14:48:07;1.35;;;0.82;;
61291;SDS011;47165;42.664;23.368;2022-09-30T14:50:41;1.77;;;1.25;;
61291;SDS011;47165;42.664;23.368;2022-09-30T14:53:37;3.58;;;0.77;;
61291;SDS011;47165;42.664;23.368;2022-09-30T14:56:18;1.20;;;0.90;;
61291;SDS011;47165;42.664;23.368;2022-09-30T14:58:51;3.35;;;1.10;;
61291;SDS011;47165;42.664;23.368;2022-09-30T15:01:18;2.03;;;1.10;;
61291;SDS011;47165;42.664;23.368;2022-09-30T15:03:53;1.90;;;1.00;;
61291;SDS011;47165;42.664;23.368;2022-09-30T15:06:26;5.63;;;1.00;;
61291;SDS011;47165;42.664;23.368;2022-09-30T15:09:01;4.40;;;1.27;;
61291;SDS011;47165;42.664;23.368;2022-09-30T15:11:29;4.00;;;1.98;;
61291;SDS011;47165;42.664;23.368;2022-09-30T15:14:01;2.58;;;1.10;;
61291;SDS011;47165;42.664;23.368;2022-09-30T15:16:30;2.10;;;1.10;;
61291;SDS011;47165;42.664;23.368;2022-09-30T15:18:57;1.30;;;1.20;;
61291;SDS011;47165;42.664;23.368;2022-09-30T15:21:23;2.17;;;1.50;;
61291;SDS011;47165;42.664;23.368;2022-09-30T15:23:51;5.55;;;0.88;;
61291;SDS011;47165;42.664;23.368;2022-09-30T15:26:24;1.65;;;1.17;;
61291;SDS011;47165;42.664;23.368;2022-09-30T15:28:51;4.35;;;1.80;;
61291;SDS011;47165;42.664;23.368;2022-09-30T15:31:28;1.75;;;1.17;;
61291;SDS011;47165;42.664;23.368;2022-09-30T15:34:03;1.33;;;1.08;;
61291;SDS011;47165;42.664;23.368;2022-09-30T15:36:31;1.48;;;1.17;;
61291;SDS011;47165;42.664;23.368;2022-09-30T15:38:58;2.28;;;1.05;;
61291;SDS011;47165;42.664;23.368;2022-09-30T15:41:23;2.25;;;1.33;;
61291;SDS011;47165;42.664;23.368;2022-09-30T15:43:50;2.10;;;1.40;;
61291;SDS011;47165;42.664;23.368;2022-09-30T15:48:46;5.35;;;1.52;;
61291;SDS011;47165;42.664;23.368;2022-09-30T15:56:38;6.95;;;1.80;;
61291;SDS011;47165;42.664;23.368;2022-09-30T15:59:05;3.83;;;1.45;;
61291;SDS011;47165;42.664;23.368;2022-09-30T16:01:36;1.98;;;1.20;;
61291;SDS011;47165;42.664;23.368;2022-09-30T16:04:09;2.22;;;1.35;;
61291;SDS011;47165;42.664;23.368;2022-09-30T16:06:42;5.53;;;1.67;;
61291;SDS011;47165;42.664;23.368;2022-09-30T16:09:24;2.40;;;1.55;;
61291;SDS011;47165;42.664;23.368;2022-09-30T16:17:33;1.98;;;1.60;;
61291;SDS011;47165;42.664;23.368;2022-09-30T16:20:03;3.20;;;1.38;;
61291;SDS011;47165;42.664;23.368;2022-09-30T16:22:46;3.58;;;1.20;;
61291;SDS011;47165;42.664;23.368;2022-09-30T16:27:44;1.85;;;1.48;;
61291;SDS011;47165;42.664;23.368;2022-09-30T16:30:14;2.65;;;1.50;;
61291;SDS011;47165;42.664;23.368;2022-09-30T16:32:44;4.97;;;1.85;;
61291;SDS011;47165;42.664;23.368;2022-09-30T16:35:20;5.05;;;1.95;;
61291;SDS011;47165;42.664;23.368;2022-09-30T16:40:23;2.88;;;1.60;;
61291;SDS011;47165;42.664;23.368;2022-09-30T16:42:50;4.15;;;1.65;;
61291;SDS011;47165;42.664;23.368;2022-09-30T16:45:18;2.60;;;1.83;;
61291;SDS011;47165;42.664;23.368;2022-09-30T16:47:45;3.72;;;1.90;;
61291;SDS011;47165;42.664;23.368;2022-09-30T16:50:22;6.53;;;2.22;;
61291;SDS011;47165;42.664;23.368;2022-09-30T16:52:51;3.40;;;1.80;;
61291;SDS011;47165;42.664;23.368;2022-09-30T16:55:17;4.25;;;2.03;;
61291;SDS011;47165;42.664;23.368;2022-09-30T16:57:42;2.15;;;1.75;;
61291;SDS011;47165;42.664;23.368;2022-09-30T17:00:10;5.05;;;2.10;;
61291;SDS011;47165;42.664;23.368;2022-09-30T17:02:39;3.20;;;1.95;;
61291;SDS011;47165;42.664;23.368;2022-09-30T17:05:05;3.10;;;1.75;;
61291;SDS011;47165;42.664;23.368;2022-09-30T17:07:31;5.55;;;1.90;;
61291;SDS011;47165;42.664;23.368;2022-09-30T17:09:56;3.45;;;1.80;;
61291;SDS011;47165;42.664;23.368;2022-09-30T17:12:21;4.10;;;1.80;;
61291;SDS011;47165;42.664;23.368;2022-09-30T17:14:47;2.33;;;1.65;;
61291;SDS011;47165;42.664;23.368;2022-09-30T17:17:13;2.00;;;1.50;;
61291;SDS011;47165;42.664;23.368;2022-09-30T17:19:38;3.75;;;1.67;;
61291;SDS011;47165;42.664;23.368;2022-09-30T17:22:03;1.85;;;1.50;;
61291;SDS011;47165;42.664;23.368;2022-09-30T17:24:29;2.95;;;1.75;;
61291;SDS011;47165;42.664;23.368;2022-09-30T17:26:56;1.50;;;1.30;;
61291;SDS011;47165;42.664;23.368;2022-09-30T17:29:22;2.55;;;1.30;;
61291;SDS011;47165;42.664;23.368;2022-09-30T17:31:48;2.95;;;2.00;;
61291;SDS011;47165;42.664;23.368;2022-09-30T17:34:13;4.00;;;1.80;;
61291;SDS011;47165;42.664;23.368;2022-09-30T17:36:38;4.07;;;2.03;;
61291;SDS011;47165;42.664;23.368;2022-09-30T17:39:05;4.38;;;2.20;;
61291;SDS011;47165;42.664;23.368;2022-09-30T17:41:31;4.90;;;2.15;;
61291;SDS011;47165;42.664;23.368;2022-09-30T17:44:16;7.03;;;2.35;;
61291;SDS011;47165;42.664;23.368;2022-09-30T17:46:42;4.43;;;2.35;;
61291;SDS011;47165;42.664;23.368;2022-09-30T17:49:12;4.38;;;2.22;;
61291;SDS011;47165;42.664;23.368;2022-09-30T17:51:41;4.22;;;1.95;;
61291;SDS011;47165;42.664;23.368;2022-09-30T17:54:06;3.95;;;2.20;;
61291;SDS011;47165;42.664;23.368;2022-09-30T17:56:32;6.10;;;2.08;;
61291;SDS011;47165;42.664;23.368;2022-09-30T17:58:59;8.05;;;2.63;;
61291;SDS011;47165;42.664;23.368;2022-09-30T18:01:27;6.32;;;2.22;;
61291;SDS011;47165;42.664;23.368;2022-09-30T18:03:56;5.65;;;1.77;;
61291;SDS011;47165;42.664;23.368;2022-09-30T18:06:23;4.10;;;1.98;;
61291;SDS011;47165;42.664;23.368;2022-09-30T18:08:49;4.55;;;2.10;;
61291;SDS011;47165;42.664;23.368;2022-09-30T18:11:19;9.55;;;2.15;;
61291;SDS011;47165;42.664;23.368;2022-09-30T18:13:49;2.33;;;1.80;;
61291;SDS011;47165;42.664;23.368;2022-09-30T18:16:20;3.25;;;2.05;;
61291;SDS011;47165;42.664;23.368;2022-09-30T18:18:45;4.05;;;2.60;;
61291;SDS011;47165;42.664;23.368;2022-09-30T18:21:11;7.72;;;2.03;;
61291;SDS011;47165;42.664;23.368;2022-09-30T18:23:37;5.57;;;2.20;;
61291;SDS011;47165;42.664;23.368;2022-09-30T18:26:02;6.85;;;2.83;;